CSV4 weather

Public forecast

Using degrees Celsius for public forecast. Weather courtesy of forecast.io.

Closest aviation weather report (METAR) to Fort Saskatchewan Community Hospital Heliport

Closest report is Edmonton (CFB Namao) Heliport, 9.5 nm (17.5 km) W. Retrieved 2020/08/15 10:00 UTC (57 minutes ago):

CYED 151000Z AUTO 25003KT 9SM FEW071 12/09 A2998 RMK SLP158

Closest aviation forecast (TAF) to Fort Saskatchewan Community Hospital Heliport

Forecast is more than 6 hours old.

Closest forecast is Edmonton (CFB Namao) Heliport, 9.5 nm (17.5 km) W. Retrieved 2020-08-15 00:33 UTC (10 hours ago):

TAF TAF CYED 142330Z 1500/1512 28008KT P6SM FEW060 BECMG 1502/1504 27005KT FM150700 VRB03KT P6SM BKN060 RMK FCST BASED ON AUTO OBS NXT FCST BY 150600Z